Time;durP1;ratioP1;P1;durP2;ratioP2;P2;SDS_P1;SDS_P2;PMS_P1;PMS_P2;Temp;Humidity;BMP_temperature;BMP_pressure;BME280_temperature;BME280_humidity;BME280_pressure;Samples;Min_cycle;Max_cycle;Signal;HPM_P1;HPM_P2
2022/02/14 00:01:56;;;;;;;5.40;2.42;;;;;;;6.26;86.06;99744.78;5242959;28;20063;-77
2022/02/14 00:04:26;;;;;;;7.22;2.30;;;;;;;6.30;85.27;99732.56;5232841;28;20502;-77
2022/02/14 00:06:57;;;;;;;4.32;1.83;;;;;;;6.05;86.70;99735.06;5232609;28;20029;-77
2022/02/14 00:09:27;;;;;;;4.20;1.85;;;;;;;6.21;85.83;99736.31;5234568;28;20557;-77
2022/02/14 00:11:58;;;;;;;6.95;2.40;;;;;;;6.08;86.06;99722.00;5231201;28;20032;-77
2022/02/14 00:14:28;;;;;;;6.68;2.15;;;;;;;6.39;85.47;99727.09;5235498;28;20036;-77
2022/02/14 00:16:58;;;;;;;6.00;2.60;;;;;;;6.46;84.79;99719.03;5231968;28;20025;-77
2022/02/14 00:19:28;;;;;;;6.57;1.95;;;;;;;6.41;84.86;99715.75;5229445;28;20398;-77
2022/02/14 00:21:59;;;;;;;5.10;1.90;;;;;;;6.45;85.36;99704.38;5235411;28;20533;-77
2022/02/14 00:24:29;;;;;;;5.47;1.90;;;;;;;6.56;84.78;99714.41;5233003;28;20551;-77
2022/02/14 00:26:59;;;;;;;6.40;2.20;;;;;;;6.49;84.49;99712.91;5242633;28;20047;-77
2022/02/14 00:29:29;;;;;;;8.57;2.05;;;;;;;6.56;84.52;99710.06;5237768;28;20025;-77
2022/02/14 00:32:00;;;;;;;5.47;2.00;;;;;;;6.47;85.32;99699.13;5236791;28;20034;-77
2022/02/14 00:34:30;;;;;;;6.07;2.00;;;;;;;6.65;84.06;99693.31;5225909;28;20021;-77
2022/02/14 00:37:00;;;;;;;5.28;2.03;;;;;;;6.67;83.85;99691.53;5233016;28;20033;-77
2022/02/14 00:39:31;;;;;;;5.10;1.95;;;;;;;6.55;84.14;99686.75;5232654;28;20028;-77
2022/02/14 00:42:01;;;;;;;4.35;2.03;;;;;;;6.35;85.46;99681.38;5230642;28;20474;-77
2022/02/14 00:44:31;;;;;;;5.40;2.00;;;;;;;6.40;85.49;99680.31;5235217;28;20037;-77
2022/02/14 00:47:02;;;;;;;5.35;2.03;;;;;;;6.34;85.50;99682.25;5231565;28;20120;-77
2022/02/14 00:49:33;;;;;;;6.15;1.95;;;;;;;6.33;86.00;99684.03;5235135;28;20116;-77
2022/02/14 00:52:03;;;;;;;3.85;2.08;;;;;;;6.34;85.75;99666.69;5231320;28;20029;-77
2022/02/14 00:54:35;;;;;;;5.18;2.03;;;;;;;6.39;85.93;99665.66;5230485;28;20025;-77
2022/02/14 00:57:05;;;;;;;7.70;2.03;;;;;;;6.33;86.21;99655.50;5237970;28;20021;-77
2022/02/14 00:59:36;;;;;;;4.93;1.90;;;;;;;6.26;86.70;99642.78;5240895;28;20086;-77
2022/02/14 01:02:06;;;;;;;6.57;2.15;;;;;;;6.30;86.82;99637.44;5236050;28;20394;-77
2022/02/14 01:04:36;;;;;;;6.50;2.20;;;;;;;6.41;86.04;99642.25;5233891;28;20820;-77
2022/02/14 01:07:07;;;;;;;4.22;1.88;;;;;;;6.49;86.02;99640.25;5232258;28;20028;-77
2022/02/14 01:09:37;;;;;;;5.75;2.13;;;;;;;6.42;85.84;99642.19;5236307;28;20074;-77
2022/02/14 01:12:08;;;;;;;7.47;2.25;;;;;;;6.46;85.66;99636.00;5230472;28;20103;-77
2022/02/14 01:14:38;;;;;;;4.72;2.22;;;;;;;6.71;83.90;99638.59;5228773;28;20032;-77
2022/02/14 01:17:09;;;;;;;5.47;2.00;;;;;;;6.69;84.35;99636.06;5230843;28;20032;-77
2022/02/14 01:19:39;;;;;;;5.03;1.92;;;;;;;6.63;84.85;99644.03;5232936;28;20416;-77
2022/02/14 01:22:10;;;;;;;8.18;1.90;;;;;;;6.70;83.85;99636.91;5235999;28;20105;-77
2022/02/14 01:24:40;;;;;;;6.45;2.00;;;;;;;6.77;83.92;99638.41;5235096;28;20033;-77
2022/02/14 01:27:10;;;;;;;7.60;2.08;;;;;;;6.80;84.00;99635.69;5244796;28;20028;-77
2022/02/14 01:29:46;;;;;;;7.15;1.90;;;;;;;6.75;84.14;99614.25;5251366;28;20452;-77
2022/02/14 01:32:19;;;;;;;5.32;1.85;;;;;;;6.79;83.36;99623.59;5233435;28;20025;-77
2022/02/14 01:34:51;;;;;;;5.95;2.00;;;;;;;6.75;84.77;99606.44;5245566;28;20017;-77
2022/02/14 01:37:22;;;;;;;6.72;2.00;;;;;;;6.81;83.33;99609.69;5238547;28;20099;-77
2022/02/14 01:39:52;;;;;;;4.72;1.80;;;;;;;6.78;83.56;99601.16;5240098;28;20571;-77
2022/02/14 01:42:22;;;;;;;8.68;2.22;;;;;;;6.76;83.77;99597.75;5236896;28;20024;-77
2022/02/14 01:44:53;;;;;;;6.60;2.00;;;;;;;6.68;84.78;99590.25;5240919;28;20024;-77
2022/02/14 01:47:25;;;;;;;3.78;2.00;;;;;;;6.63;84.90;99594.72;5237346;28;20081;-77
2022/02/14 01:49:56;;;;;;;7.07;2.00;;;;;;;6.65;84.68;99590.34;5240247;28;20039;-77
2022/02/14 01:52:30;;;;;;;8.43;2.03;;;;;;;6.67;84.15;99582.50;5240901;28;20482;-77
2022/02/14 01:55:01;;;;;;;5.90;1.90;;;;;;;6.66;84.44;99578.22;5244631;28;20031;-77
2022/02/14 01:57:34;;;;;;;4.63;1.73;;;;;;;6.58;84.78;99582.84;5240553;28;20021;-77
2022/02/14 02:00:12;;;;;;;5.72;1.85;;;;;;;6.58;85.03;99575.88;5249131;28;20272;-77
2022/02/14 02:02:42;;;;;;;6.28;2.05;;;;;;;6.57;85.44;99570.78;5244611;28;20044;-77
2022/02/14 02:05:13;;;;;;;5.93;2.00;;;;;;;6.49;84.91;99570.19;5237853;28;20509;-77
2022/02/14 02:07:44;;;;;;;6.93;2.13;;;;;;;6.63;84.42;99566.19;5238567;28;20492;-77
2022/02/14 02:10:16;;;;;;;6.72;2.00;;;;;;;6.65;85.08;99568.72;5239702;28;20478;-77
2022/02/14 02:12:52;;;;;;;5.45;2.10;;;;;;;6.63;84.89;99565.34;5237333;28;20029;-77
2022/02/14 02:15:24;;;;;;;4.43;1.92;;;;;;;6.53;85.69;99559.63;5242181;28;20532;-77
2022/02/14 02:17:54;;;;;;;9.20;1.83;;;;;;;6.47;86.30;99559.00;5237944;28;20107;-77
2022/02/14 02:20:25;;;;;;;6.60;2.28;;;;;;;6.40;86.96;99563.56;5242270;28;20150;-77
2022/02/14 02:22:55;;;;;;;4.95;1.88;;;;;;;6.31;87.18;99558.72;5237757;28;20051;-77
2022/02/14 02:25:25;;;;;;;5.35;2.08;;;;;;;6.27;87.67;99551.06;5241154;28;20028;-77
2022/02/14 02:27:55;;;;;;;5.40;2.13;;;;;;;6.14;88.29;99547.19;5247367;28;20382;-77
2022/02/14 02:30:26;;;;;;;7.47;2.08;;;;;;;6.15;88.20;99534.19;5250434;28;20309;-77
2022/02/14 02:32:56;;;;;;;4.15;1.63;;;;;;;6.24;87.12;99533.03;5239006;28;20032;-77
2022/02/14 02:35:26;;;;;;;6.03;1.80;;;;;;;6.30;87.20;99536.25;5243363;28;20024;-77
2022/02/14 02:37:57;;;;;;;4.38;1.80;;;;;;;6.40;86.50;99531.59;5234440;28;20025;-77
2022/02/14 02:40:27;;;;;;;7.20;2.10;;;;;;;6.46;85.84;99537.38;5238604;28;20048;-77
2022/02/14 02:42:58;;;;;;;4.55;1.67;;;;;;;6.48;86.42;99540.78;5235632;28;20597;-77
2022/02/14 02:45:28;;;;;;;5.38;1.85;;;;;;;6.42;86.48;99535.81;5239713;28;20044;-77
2022/02/14 02:47:59;;;;;;;3.50;1.60;;;;;;;6.50;85.95;99532.94;5235779;28;20051;-77
2022/02/14 02:50:29;;;;;;;3.78;1.70;;;;;;;6.56;85.46;99532.75;5238887;28;20035;-77
2022/02/14 02:52:59;;;;;;;2.72;1.67;;;;;;;6.46;85.87;99531.38;5235993;28;20029;-77
2022/02/14 02:55:30;;;;;;;4.18;1.73;;;;;;;6.45;86.02;99521.88;5246310;28;20116;-77
2022/02/14 02:58:00;;;;;;;5.88;1.88;;;;;;;6.41;86.15;99528.09;5242879;28;20485;-77
2022/02/14 03:00:30;;;;;;;4.60;1.85;;;;;;;6.31;87.19;99526.72;5244983;28;20065;-77
2022/02/14 03:03:00;;;;;;;6.53;2.00;;;;;;;6.03;88.67;99523.38;5242852;28;20025;-77
2022/02/14 03:05:31;;;;;;;5.63;1.70;;;;;;;5.92;89.73;99525.50;5238417;28;20032;-77
2022/02/14 03:08:01;;;;;;;3.65;1.80;;;;;;;5.80;91.13;99512.94;5236432;28;20103;-77
2022/02/14 03:10:31;;;;;;;7.78;1.70;;;;;;;5.73;91.33;99519.22;5238386;28;20478;-77
2022/02/14 03:13:02;;;;;;;5.35;1.92;;;;;;;5.54;92.02;99518.94;5235354;28;20462;-77
2022/02/14 03:15:32;;;;;;;5.55;2.15;;;;;;;5.40;92.57;99512.53;5237237;28;20664;-77
2022/02/14 03:18:03;;;;;;;4.75;2.05;;;;;;;5.30;92.96;99499.91;5235354;28;20029;-77
2022/02/14 03:20:33;;;;;;;5.70;2.10;;;;;;;5.10;93.81;99503.13;5238356;28;20146;-77
2022/02/14 03:23:03;;;;;;;5.70;2.42;;;;;;;5.13;94.45;99500.44;5234303;28;20731;-77
2022/02/14 03:25:34;;;;;;;6.50;2.42;;;;;;;5.03;94.75;99501.63;5241828;28;20120;-77
2022/02/14 03:28:04;;;;;;;5.25;2.33;;;;;;;4.98;94.95;99498.31;5240560;28;20028;-77
2022/02/14 03:30:34;;;;;;;6.82;2.63;;;;;;;4.98;94.78;99487.94;5243018;28;20037;-77
2022/02/14 03:33:05;;;;;;;5.20;2.45;;;;;;;5.00;94.98;99486.16;5239490;28;20021;-77
2022/02/14 03:35:35;;;;;;;6.28;2.08;;;;;;;4.85;95.41;99486.66;5237221;28;20028;-77
2022/02/14 03:38:06;;;;;;;5.65;2.30;;;;;;;4.76;95.92;99484.31;5233802;28;20556;-77
2022/02/14 03:40:37;;;;;;;7.82;2.70;;;;;;;4.73;96.34;99474.06;5235153;28;20052;-77
2022/02/14 03:43:08;;;;;;;8.93;2.80;;;;;;;4.67;96.34;99476.00;5234235;28;20025;-77
2022/02/14 03:45:40;;;;;;;5.47;2.80;;;;;;;4.67;96.65;99461.28;5232236;28;20033;-77
2022/02/14 03:48:11;;;;;;;6.75;2.72;;;;;;;4.71;96.99;99457.75;5235463;28;20020;-77
2022/02/14 03:50:41;;;;;;;7.57;3.08;;;;;;;4.72;96.46;99451.69;5234875;28;20039;-78
2022/02/14 03:53:12;;;;;;;5.90;2.75;;;;;;;4.80;95.67;99454.88;5235653;28;20020;-77
2022/02/14 03:55:42;;;;;;;9.57;2.80;;;;;;;4.73;95.62;99450.78;5244286;28;20036;-77
2022/02/14 03:58:13;;;;;;;6.45;2.55;;;;;;;4.78;96.25;99446.31;5248692;28;20621;-77
2022/02/14 04:00:43;;;;;;;9.68;3.00;;;;;;;4.77;96.37;99438.59;5252174;28;20525;-77
2022/02/14 04:03:14;;;;;;;7.50;2.92;;;;;;;4.74;96.07;99444.72;5236304;28;20040;-77
2022/02/14 04:05:44;;;;;;;9.05;2.85;;;;;;;4.72;96.61;99437.88;5235424;28;20118;-77
2022/02/14 04:08:15;;;;;;;10.43;2.95;;;;;;;4.68;96.80;99447.50;5236159;28;20028;-77
2022/02/14 04:10:45;;;;;;;6.10;2.70;;;;;;;4.65;97.21;99436.38;5234202;28;20037;-77
2022/02/14 04:13:15;;;;;;;9.38;2.65;;;;;;;4.65;96.76;99437.22;5233952;28;20037;-77
2022/02/14 04:15:46;;;;;;;4.25;2.60;;;;;;;4.61;97.24;99433.03;5233516;28;20041;-77
2022/02/14 04:18:16;;;;;;;7.75;2.90;;;;;;;4.67;96.69;99427.66;5233764;28;20028;-77
2022/02/14 04:20:47;;;;;;;8.07;2.83;;;;;;;4.63;96.88;99433.81;5233421;28;20033;-77
2022/02/14 04:23:17;;;;;;;8.50;3.08;;;;;;;4.59;96.63;99440.00;5234437;28;20048;-77
2022/02/14 04:25:48;;;;;;;5.07;2.70;;;;;;;4.51;97.24;99436.81;5240201;28;20024;-77
2022/02/14 04:28:19;;;;;;;7.38;3.13;;;;;;;4.50;96.80;99442.84;5242476;28;20028;-77
2022/02/14 04:30:49;;;;;;;7.40;3.15;;;;;;;4.50;97.07;99437.66;5248147;28;20417;-77
2022/02/14 04:33:19;;;;;;;5.15;2.88;;;;;;;4.47;97.10;99436.94;5232229;28;20384;-77
2022/02/14 04:35:49;;;;;;;5.03;2.75;;;;;;;4.44;97.55;99430.09;5231574;28;20099;-77
2022/02/14 04:38:20;;;;;;;8.30;2.95;;;;;;;4.39;97.72;99434.56;5220690;28;20063;-77
2022/02/14 04:40:50;;;;;;;5.93;3.00;;;;;;;4.40;97.30;99436.25;5232659;28;20025;-77
2022/02/14 04:43:20;;;;;;;8.77;2.88;;;;;;;4.41;97.77;99431.91;5234279;28;20036;-77
2022/02/14 04:45:51;;;;;;;7.30;3.03;;;;;;;4.42;97.16;99429.28;5230630;28;20033;-77
2022/02/14 04:48:21;;;;;;;6.05;2.85;;;;;;;4.49;96.69;99432.56;5229150;28;20055;-76
2022/02/14 04:50:51;;;;;;;6.03;2.83;;;;;;;4.46;97.12;99432.66;5228700;28;20082;-77
2022/02/14 04:53:22;;;;;;;5.60;2.90;;;;;;;4.42;97.41;99426.72;5234957;28;20393;-77
2022/02/14 04:55:52;;;;;;;7.90;3.17;;;;;;;4.36;97.55;99420.88;5235282;28;20021;-77
2022/02/14 04:58:22;;;;;;;7.97;3.05;;;;;;;4.36;97.82;99416.56;5238160;28;20395;-77
2022/02/14 05:00:52;;;;;;;5.93;2.80;;;;;;;4.37;97.45;99415.66;5245063;28;20032;-77
2022/02/14 05:03:23;;;;;;;6.53;3.05;;;;;;;4.34;97.08;99426.09;5230367;28;20021;-77
2022/02/14 05:05:53;;;;;;;9.52;2.90;;;;;;;4.31;97.74;99421.00;5234904;28;20021;-77
2022/02/14 05:08:23;;;;;;;7.05;3.00;;;;;;;4.39;97.56;99416.47;5232099;28;20071;-77
2022/02/14 05:10:54;;;;;;;6.55;2.70;;;;;;;4.46;96.86;99425.72;5234485;28;20517;-77
2022/02/14 05:13:24;;;;;;;8.65;2.95;;;;;;;4.44;97.18;99417.16;5234742;28;20024;-77
2022/02/14 05:15:55;;;;;;;6.00;2.70;;;;;;;4.43;97.53;99424.97;5231271;28;20033;-77
2022/02/14 05:18:25;;;;;;;6.90;2.90;;;;;;;4.46;97.01;99417.13;5234580;28;20028;-77
2022/02/14 05:20:55;;;;;;;9.25;3.38;;;;;;;4.50;96.54;99413.56;5229154;28;20016;-77
2022/02/14 05:23:25;;;;;;;6.30;2.72;;;;;;;4.49;96.86;99417.88;5233336;28;20044;-77
2022/02/14 05:25:56;;;;;;;5.75;2.92;;;;;;;4.36;97.55;99426.03;5240189;28;20058;-77
2022/02/14 05:28:26;;;;;;;6.25;2.70;;;;;;;4.36;97.88;99424.31;5244076;28;20024;-77
2022/02/14 05:30:56;;;;;;;6.38;2.63;;;;;;;4.32;97.12;99425.28;5243442;28;20035;-77
2022/02/14 05:33:27;;;;;;;7.13;2.85;;;;;;;4.36;97.72;99423.44;5229287;28;20020;-77
2022/02/14 05:35:57;;;;;;;7.78;2.83;;;;;;;4.40;96.74;99420.75;5233224;28;20047;-77
2022/02/14 05:38:27;;;;;;;9.80;2.75;;;;;;;4.39;97.22;99418.19;5230432;28;20032;-77
2022/02/14 05:40:58;;;;;;;7.05;2.50;;;;;;;4.35;97.33;99417.44;5230348;28;20112;-77
2022/02/14 05:43:28;;;;;;;8.65;3.05;;;;;;;4.36;97.80;99413.09;5233902;28;20355;-77
2022/02/14 05:45:58;;;;;;;5.95;3.00;;;;;;;4.19;98.09;99421.38;5232320;28;20102;-77
2022/02/14 05:48:28;;;;;;;6.30;2.50;;;;;;;4.23;98.57;99422.97;5233417;28;20032;-77
2022/02/14 05:50:59;;;;;;;6.43;3.20;;;;;;;4.18;98.77;99430.00;5229788;28;20025;-77
2022/02/14 05:53:29;;;;;;;5.55;2.63;;;;;;;4.05;99.56;99426.06;5232855;28;20025;-77
2022/02/14 05:56:00;;;;;;;5.32;2.65;;;;;;;4.04;99.85;99428.69;5241736;28;20028;-77
2022/02/14 05:58:30;;;;;;;6.07;2.58;;;;;;;4.00;100.00;99427.94;5241950;28;20032;-77
2022/02/14 06:01:00;;;;;;;4.78;2.47;;;;;;;4.00;100.00;99421.91;5244013;28;20024;-77
2022/02/14 06:03:31;;;;;;;8.10;2.70;;;;;;;4.02;99.44;99426.16;5231889;28;20107;-77
2022/02/14 06:06:01;;;;;;;7.25;2.72;;;;;;;4.08;99.69;99425.13;5234815;28;20036;-77
2022/02/14 06:08:32;;;;;;;7.47;3.05;;;;;;;4.07;98.88;99413.94;5231061;28;20055;-77
2022/02/14 06:11:02;;;;;;;5.75;2.67;;;;;;;4.14;97.51;99418.03;5235425;28;20056;-77
2022/02/14 06:13:33;;;;;;;5.38;2.53;;;;;;;4.29;97.23;99412.44;5239421;28;20074;-77
2022/02/14 06:16:03;;;;;;;5.93;2.70;;;;;;;4.26;97.53;99412.53;5234935;28;20024;-77
2022/02/14 06:18:34;;;;;;;5.18;2.50;;;;;;;4.21;98.04;99409.25;5238388;28;20055;-77
2022/02/14 06:21:04;;;;;;;8.23;2.70;;;;;;;4.20;98.36;99386.00;5236720;28;20518;-77
2022/02/14 06:23:34;;;;;;;9.38;3.10;;;;;;;4.17;99.08;99392.13;5239333;28;20035;-77
2022/02/14 06:26:06;;;;;;;5.05;2.75;;;;;;;4.13;99.64;99390.50;5246443;28;20031;-77
2022/02/14 06:28:38;;;;;;;5.43;2.50;;;;;;;4.10;99.68;99395.75;5237351;28;20036;-77
2022/02/14 06:31:09;;;;;;;6.63;2.60;;;;;;;4.11;100.00;99394.88;5249597;28;20028;-77
2022/02/14 06:33:40;;;;;;;5.07;2.80;;;;;;;4.12;99.87;99398.31;5238872;28;20037;-77
2022/02/14 06:36:10;;;;;;;6.22;2.60;;;;;;;4.04;100.00;99384.75;5243589;28;20491;-78
2022/02/14 06:38:41;;;;;;;7.55;2.65;;;;;;;4.10;100.00;99390.59;5238286;28;20029;-77
2022/02/14 06:41:12;;;;;;;6.43;2.40;;;;;;;4.18;99.62;99391.25;5243328;28;20021;-77
2022/02/14 06:43:42;;;;;;;7.05;2.33;;;;;;;4.22;99.88;99384.22;5244725;28;20025;-77
2022/02/14 06:46:13;;;;;;;7.50;2.55;;;;;;;4.31;100.00;99384.78;5239650;28;20036;-78
2022/02/14 06:48:43;;;;;;;5.85;2.25;;;;;;;4.38;99.36;99375.97;5240279;28;20082;-77
2022/02/14 06:51:17;;;;;;;4.20;2.22;;;;;;;4.39;99.37;99372.50;5240398;28;20020;-77
2022/02/14 06:53:48;;;;;;;6.65;2.38;;;;;;;4.58;99.16;99371.03;5243250;28;20020;-78
2022/02/14 06:56:18;;;;;;;8.68;2.58;;;;;;;4.75;98.19;99368.78;5248219;28;20047;-77
2022/02/14 06:58:49;;;;;;;9.18;2.50;;;;;;;4.73;98.66;99362.81;5250943;28;20047;-77
2022/02/14 07:01:20;;;;;;;3.75;1.90;;;;;;;5.02;97.13;99367.03;5247544;28;20025;-78
2022/02/14 07:03:50;;;;;;;5.53;2.00;;;;;;;5.08;96.83;99362.50;5238945;28;20021;-77
2022/02/14 07:06:20;;;;;;;6.45;2.05;;;;;;;5.28;95.85;99360.09;5235699;28;20029;-77
2022/02/14 07:08:50;;;;;;;6.60;2.00;;;;;;;5.45;95.54;99365.56;5238181;28;20107;-77
2022/02/14 07:11:21;;;;;;;7.65;2.35;;;;;;;5.59;94.88;99384.06;5235070;28;20033;-77
2022/02/14 07:13:51;;;;;;;9.00;1.98;;;;;;;5.64;94.93;99405.47;5238236;28;20051;-77
2022/02/14 07:16:21;;;;;;;6.50;1.90;;;;;;;5.72;93.81;99413.84;5235728;28;20394;-77
2022/02/14 07:18:52;;;;;;;4.25;1.73;;;;;;;5.85;93.50;99407.34;5234249;28;20106;-77
2022/02/14 07:21:22;;;;;;;4.93;1.80;;;;;;;5.98;92.68;99417.25;5235062;28;20017;-76
2022/02/14 07:23:54;;;;;;;3.78;1.70;;;;;;;6.08;91.99;99404.78;5238011;28;20020;-77
2022/02/14 07:26:24;;;;;;;4.35;1.85;;;;;;;6.21;90.86;99403.41;5242820;28;20035;-78
2022/02/14 07:28:54;;;;;;;5.00;2.00;;;;;;;6.34;89.98;99405.53;5246559;28;20089;-77
2022/02/14 07:31:25;;;;;;;5.80;1.83;;;;;;;6.47;88.90;99408.50;5247974;28;20028;-77
2022/02/14 07:33:55;;;;;;;6.07;1.80;;;;;;;6.46;89.44;99414.59;5233628;28;20115;-77
2022/02/14 07:36:25;;;;;;;4.13;2.25;;;;;;;6.59;89.36;99406.28;5239150;28;20039;-77
2022/02/14 07:38:56;;;;;;;6.47;2.08;;;;;;;6.78;88.95;99409.03;5233375;28;20029;-77
2022/02/14 07:41:26;;;;;;;5.22;2.08;;;;;;;6.86;89.05;99402.63;5239207;28;20036;-77
2022/02/14 07:43:56;;;;;;;5.28;1.73;;;;;;;7.36;87.20;99399.66;5234308;28;20028;-77
2022/02/14 07:46:27;;;;;;;2.50;1.55;;;;;;;8.00;84.89;99390.81;5235627;28;20025;-77
2022/02/14 07:48:57;;;;;;;5.05;1.40;;;;;;;8.83;82.36;99377.41;5238092;28;20024;-77
2022/02/14 07:51:27;;;;;;;4.43;1.40;;;;;;;8.90;81.73;99372.75;5235035;28;20418;-77
2022/02/14 07:53:58;;;;;;;3.90;1.65;;;;;;;9.03;81.12;99366.88;5244129;28;20016;-77
2022/02/14 07:56:28;;;;;;;3.63;1.30;;;;;;;10.00;79.40;99366.22;5246228;28;20033;-78
2022/02/14 07:58:59;;;;;;;4.65;1.40;;;;;;;10.58;75.94;99359.59;5252105;28;20029;-77
2022/02/14 08:01:30;;;;;;;3.58;1.33;;;;;;;11.30;74.89;99356.28;5247550;28;20025;-77
2022/02/14 08:04:00;;;;;;;3.85;1.27;;;;;;;11.90;72.57;99361.41;5238004;28;20230;-78
2022/02/14 08:06:32;;;;;;;4.07;1.10;;;;;;;12.73;70.00;99350.94;5237997;28;20025;-78
2022/02/14 08:09:04;;;;;;;4.93;1.33;;;;;;;13.34;67.99;99360.00;5242407;28;20032;-77
2022/02/14 08:11:34;;;;;;;4.05;1.50;;;;;;;13.95;67.26;99353.13;5239569;28;20029;-77
2022/02/14 08:14:04;;;;;;;3.85;1.42;;;;;;;13.57;66.87;99354.09;5241083;28;20692;-77
2022/02/14 08:16:35;;;;;;;3.10;1.50;;;;;;;13.50;66.36;99350.16;5241997;28;20104;-77
2022/02/14 08:19:05;;;;;;;3.33;1.45;;;;;;;13.37;66.67;99334.41;5237785;28;20025;-77
2022/02/14 08:21:36;;;;;;;3.45;1.40;;;;;;;13.50;66.46;99334.41;5238634;28;20051;-78
2022/02/14 08:24:06;;;;;;;4.35;1.00;;;;;;;13.75;67.13;99330.03;5237635;28;20017;-77
2022/02/14 08:26:38;;;;;;;3.50;1.20;;;;;;;13.38;68.58;99341.34;5252516;28;20143;-77
2022/02/14 08:29:08;;;;;;;4.03;1.52;;;;;;;13.26;67.44;99333.44;5253450;28;20024;-77
2022/02/14 08:31:39;;;;;;;3.28;1.40;;;;;;;13.26;68.53;99328.19;5248259;28;20039;-77
2022/02/14 08:34:09;;;;;;;3.38;1.42;;;;;;;13.62;66.92;99338.84;5240380;28;20016;-77
2022/02/14 08:36:40;;;;;;;4.20;1.25;;;;;;;14.04;66.07;99322.78;5241896;28;20029;-78
2022/02/14 08:39:11;;;;;;;3.42;1.35;;;;;;;14.84;65.40;99319.56;5241859;28;20033;-77
2022/02/14 08:41:41;;;;;;;4.25;1.20;;;;;;;15.11;63.93;99307.03;5240156;28;20032;-77
2022/02/14 08:44:12;;;;;;;3.95;1.08;;;;;;;15.00;63.87;99312.22;5240484;28;20051;-78
2022/02/14 08:46:42;;;;;;;5.88;1.45;;;;;;;15.05;62.76;99304.81;5237625;28;20515;-78
2022/02/14 08:49:12;;;;;;;4.20;1.40;;;;;;;15.31;62.63;99308.19;5240307;28;20036;-77
2022/02/14 08:51:43;;;;;;;5.05;1.35;;;;;;;15.36;63.37;99319.22;5238086;28;20024;-77
2022/02/14 08:54:13;;;;;;;4.20;1.63;;;;;;;14.87;64.16;99329.84;5239036;28;20028;-77
2022/02/14 08:56:43;;;;;;;3.73;1.30;;;;;;;14.01;66.92;99336.13;5250277;28;20085;-78
2022/02/14 08:59:19;;;;;;;3.97;1.48;;;;;;;13.05;68.03;99356.66;5248949;28;20274;-77
2022/02/14 09:01:49;;;;;;;3.08;0.98;;;;;;;12.44;70.10;99357.19;5248621;28;20063;-78
2022/02/14 09:04:19;;;;;;;4.22;1.40;;;;;;;11.91;71.30;99365.69;5238808;28;20025;-78
2022/02/14 09:06:50;;;;;;;3.92;1.30;;;;;;;12.33;71.34;99349.97;5241755;28;20138;-78
2022/02/14 09:09:20;;;;;;;5.60;1.77;;;;;;;13.04;69.64;99351.53;5239136;28;20120;-77
2022/02/14 09:11:50;;;;;;;3.15;1.20;;;;;;;12.69;71.32;99349.44;5239611;28;20045;-77
2022/02/14 09:14:21;;;;;;;4.50;1.40;;;;;;;12.35;71.97;99345.50;5239149;28;20116;-77
2022/02/14 09:16:51;;;;;;;2.90;1.23;;;;;;;12.11;73.68;99331.28;5240458;28;20027;-78
2022/02/14 09:19:21;;;;;;;3.58;1.30;;;;;;;12.07;74.68;99332.41;5238461;28;20029;-77
2022/02/14 09:21:52;;;;;;;5.00;1.40;;;;;;;12.38;75.65;99323.50;5240569;28;20203;-78
2022/02/14 09:24:23;;;;;;;3.83;1.27;;;;;;;12.80;75.32;99316.34;5238448;28;20037;-78
2022/02/14 09:26:53;;;;;;;4.10;1.40;;;;;;;12.78;74.24;99318.25;5253635;28;20063;-77
2022/02/14 09:29:24;;;;;;;3.17;1.05;;;;;;;12.96;72.57;99318.88;5245179;28;20024;-77
2022/02/14 09:31:54;;;;;;;6.32;1.23;;;;;;;13.01;71.10;99322.84;5243764;28;20100;-78
2022/02/14 09:34:25;;;;;;;4.55;1.20;;;;;;;12.89;71.29;99318.41;5243543;28;20027;-78
2022/02/14 09:36:56;;;;;;;4.25;1.40;;;;;;;12.67;71.50;99341.66;5233079;28;20029;-77
2022/02/14 09:39:30;;;;;;;2.92;1.48;;;;;;;12.44;72.22;99323.94;5240023;28;20375;-78
2022/02/14 09:42:01;;;;;;;5.50;1.45;;;;;;;12.21;72.73;99332.41;5233781;28;20537;-77
2022/02/14 09:47:05;;;;;;;6.20;1.25;;;;;;;11.77;75.25;99309.88;5195920;22;20561;-78
2022/02/14 09:49:36;;;;;;;4.28;1.48;;;;;;;11.65;75.71;99332.38;5191687;28;20038;-78
2022/02/14 09:52:06;;;;;;;6.00;1.60;;;;;;;11.51;75.60;99329.72;5192186;28;20083;-78
2022/02/14 09:54:37;;;;;;;5.25;1.40;;;;;;;11.52;75.99;99331.41;5193213;28;20021;-78
2022/02/14 09:57:08;;;;;;;4.03;1.17;;;;;;;11.45;76.41;99327.44;5207382;28;20160;-78
2022/02/14 09:59:41;;;;;;;7.40;1.50;;;;;;;11.41;76.32;99327.75;5196444;28;20025;-77
2022/02/14 10:02:26;;;;;;;6.82;1.67;;;;;;;11.31;76.25;99326.59;5192023;28;20028;-78
2022/02/14 10:05:13;;;;;;;3.88;1.30;;;;;;;11.19;77.30;99320.31;5191631;28;20030;-78
2022/02/14 10:07:48;;;;;;;3.30;1.10;;;;;;;11.14;77.85;99332.78;5191850;28;20042;-77
2022/02/14 10:10:21;;;;;;;5.45;1.23;;;;;;;11.15;77.83;99331.88;5194630;28;20084;-78
2022/02/14 10:12:55;;;;;;;3.28;1.35;;;;;;;11.12;77.53;99333.81;5191363;28;20468;-78
2022/02/14 10:15:27;;;;;;;3.58;1.25;;;;;;;11.48;78.55;99337.72;5193992;28;20453;-78
2022/02/14 10:17:59;;;;;;;4.78;1.38;;;;;;;11.51;77.41;99339.34;5190982;28;20118;-77
2022/02/14 10:20:31;;;;;;;4.43;1.63;;;;;;;11.56;77.06;99338.16;5193874;28;20033;-78
2022/02/14 10:23:04;;;;;;;3.15;1.10;;;;;;;11.58;76.91;99346.75;5194157;28;20096;-77
2022/02/14 10:25:36;;;;;;;4.80;1.55;;;;;;;11.56;78.13;99351.25;5202986;28;20414;-78
2022/02/14 10:28:25;;;;;;;5.35;1.30;;;;;;;11.60;78.44;99352.75;5207745;28;20071;-78
2022/02/14 10:31:01;;;;;;;3.03;1.10;;;;;;;11.82;77.53;99342.69;5206529;28;20487;-77
2022/02/14 10:33:44;;;;;;;4.45;1.42;;;;;;;12.16;77.76;99339.69;5191452;28;20029;-78
2022/02/14 10:36:32;;;;;;;2.78;1.30;;;;;;;12.15;76.63;99334.56;5192112;28;20395;-78
2022/02/14 10:39:24;;;;;;;6.95;1.20;;;;;;;12.03;77.24;99343.16;5191331;28;20038;-77
2022/02/14 10:42:06;;;;;;;3.17;1.25;;;;;;;11.86;78.26;99338.97;5190819;28;20500;-78
2022/02/14 10:45:09;;;;;;;5.10;1.33;;;;;;;11.74;78.33;99342.31;5191563;28;20546;-77
2022/02/14 10:47:42;;;;;;;2.92;1.13;;;;;;;11.92;78.61;99333.34;5192394;28;20046;-78
2022/02/14 10:50:19;;;;;;;4.82;1.20;;;;;;;12.07;77.52;99332.41;5190761;28;20479;-77
2022/02/14 10:52:57;;;;;;;3.80;1.27;;;;;;;12.61;78.78;99326.34;5193018;28;20036;-77
2022/02/14 10:55:37;;;;;;;4.38;1.38;;;;;;;12.78;78.50;99318.25;5202627;28;20041;-78
2022/02/14 10:58:08;;;;;;;5.03;1.20;;;;;;;12.86;77.51;99323.84;5207009;28;20082;-78
2022/02/14 11:00:39;;;;;;;3.58;1.10;;;;;;;13.00;76.91;99327.28;5193865;28;20033;-78
2022/02/14 11:03:11;;;;;;;3.40;1.23;;;;;;;13.02;75.27;99314.91;5191918;28;20065;-77
2022/02/14 11:05:43;;;;;;;3.58;1.10;;;;;;;12.89;75.15;99310.53;5191611;28;20409;-78
2022/02/14 11:08:14;;;;;;;3.25;1.27;;;;;;;12.90;76.48;99313.03;5191766;28;20112;-78
2022/02/14 11:10:49;;;;;;;4.10;1.05;;;;;;;12.91;75.98;99308.66;5192894;28;20034;-77
2022/02/14 11:13:25;;;;;;;8.25;1.90;;;;;;;12.91;75.76;99303.41;5191687;28;20022;-77
2022/02/14 11:15:58;;;;;;;6.22;1.08;;;;;;;13.02;76.37;99311.44;5194479;28;20041;-78
2022/02/14 11:18:39;;;;;;;5.80;1.85;;;;;;;12.90;76.04;99312.22;5190761;28;20057;-78
2022/02/14 11:21:09;;;;;;;4.38;1.50;;;;;;;12.97;76.53;99323.19;5192996;28;20024;-78
2022/02/14 11:24:13;;;;;;;3.40;1.25;;;;;;;12.84;74.48;99315.22;5192771;28;20033;-77
2022/02/14 11:27:01;;;;;;;5.18;1.40;;;;;;;12.90;76.10;99322.69;5204501;28;20029;-78
2022/02/14 11:29:41;;;;;;;5.13;1.50;;;;;;;12.98;76.90;99317.81;5205600;28;20606;-77
2022/02/14 11:32:22;;;;;;;3.42;0.85;;;;;;;12.95;75.68;99335.56;5196351;28;20350;-77
2022/02/14 11:34:56;;;;;;;3.60;1.30;;;;;;;12.93;75.63;99327.78;5193352;28;20471;-77
2022/02/14 11:37:49;;;;;;;4.68;1.10;;;;;;;12.90;75.09;99327.94;5190016;28;20373;-78
2022/02/14 11:40:25;;;;;;;3.45;0.90;;;;;;;12.87;76.33;99328.16;5193445;28;20021;-77
2022/02/14 11:43:15;;;;;;;1.77;1.00;;;;;;;12.99;75.76;99322.13;5193202;28;20104;-78
2022/02/14 11:46:24;;;;;;;2.45;1.20;;;;;;;12.92;75.05;99312.94;5191001;28;20037;-77
2022/02/14 11:49:03;;;;;;;5.25;1.30;;;;;;;12.99;77.12;99322.13;5193929;28;20029;-78
2022/02/14 11:51:40;;;;;;;5.15;1.10;;;;;;;13.02;76.34;99311.44;5190562;28;20127;-77
2022/02/14 11:54:34;;;;;;;4.90;1.20;;;;;;;12.95;74.24;99307.53;5196224;28;20022;-78
2022/02/14 11:57:10;;;;;;;2.97;1.00;;;;;;;12.88;74.94;99303.59;5205937;28;20097;-78
2022/02/14 11:59:41;;;;;;;5.63;1.23;;;;;;;12.60;75.22;99324.66;5205043;28;20033;-77
2022/02/14 12:02:12;;;;;;;7.72;1.20;;;;;;;12.35;76.62;99316.69;5199057;28;20017;-77
2022/02/14 12:04:46;;;;;;;1.75;1.05;;;;;;;12.51;76.63;99309.53;5189574;28;20124;-78